Time;durP1;ratioP1;P1;durP2;ratioP2;P2;SDS_P1;SDS_P2;PMS_P1;PMS_P2;Temp;Humidity;BMP_temperature;BMP_pressure;BME280_temperature;BME280_humidity;BME280_pressure;Samples;Min_cycle;Max_cycle;Signal;HPM_P1;HPM_P2
2021/10/18 00:01:30;;;;;;;0.40;0.30;;;;;;;10.47;60.13;100759.91;111833;1193;138887;-78
2021/10/18 00:03:58;;;;;;;0.40;0.40;;;;;;;10.50;60.09;100757.36;111760;1193;107536;-78
2021/10/18 00:06:26;;;;;;;0.40;0.30;;;;;;;10.54;60.05;100759.60;111839;1193;137992;-78
2021/10/18 00:08:54;;;;;;;0.40;0.30;;;;;;;10.52;59.87;100759.45;112038;1194;95591;-78
2021/10/18 00:11:21;;;;;;;0.40;0.30;;;;;;;10.42;60.12;100761.61;111543;1194;138254;-78
2021/10/18 00:14:06;;;;;;;0.40;0.40;;;;;;;10.51;60.29;100766.06;112140;1192;106154;-78
2021/10/18 00:16:38;;;;;;;0.50;0.40;;;;;;;10.48;60.07;100769.84;112081;1192;109432;-77
2021/10/18 00:19:07;;;;;;;0.40;0.30;;;;;;;10.52;60.14;100764.95;112641;1193;136703;-80
2021/10/18 00:21:35;;;;;;;0.40;0.40;;;;;;;10.48;60.14;100763.26;112941;1193;96135;-79
2021/10/18 00:24:02;;;;;;;0.40;0.40;;;;;;;10.50;60.14;100765.53;112950;1191;137316;-79
2021/10/18 00:26:31;;;;;;;0.40;0.30;;;;;;;10.53;60.29;100764.05;113195;1193;108580;-81
2021/10/18 00:28:59;;;;;;;0.40;0.30;;;;;;;10.48;60.21;100760.41;112967;1193;95037;-79
2021/10/18 00:31:27;;;;;;;0.40;0.30;;;;;;;10.50;60.35;100763.23;112872;1191;137659;-79
2021/10/18 00:33:56;;;;;;;0.40;0.40;;;;;;;10.55;60.37;100763.30;112358;1192;106174;-79
2021/10/18 00:36:23;;;;;;;0.40;0.40;;;;;;;10.56;60.32;100759.55;112238;1193;138494;-78
2021/10/18 00:38:51;;;;;;;0.40;0.30;;;;;;;10.63;60.19;100760.30;112189;1192;97189;-78
2021/10/18 00:41:19;;;;;;;0.40;0.30;;;;;;;10.59;60.17;100755.41;111944;1193;137849;-78
2021/10/18 00:43:49;;;;;;;0.40;0.30;;;;;;;10.58;60.30;100758.63;112355;1191;108453;-79
2021/10/18 00:46:22;;;;;;;0.50;0.40;;;;;;;10.56;60.46;100759.40;112104;1193;109088;-79
2021/10/18 00:48:51;;;;;;;0.40;0.30;;;;;;;10.47;60.66;100758.31;112151;1192;138713;-77
2021/10/18 00:51:25;;;;;;;0.40;0.30;;;;;;;10.44;60.75;100752.88;111821;1193;94981;-77
2021/10/18 00:53:55;;;;;;;0.40;0.30;;;;;;;10.54;60.78;100754.45;114504;1192;137515;-76
2021/10/18 00:56:23;;;;;;;0.40;0.30;;;;;;;10.53;60.77;100754.47;111900;1193;107761;-79
2021/10/18 00:58:51;;;;;;;0.40;0.30;;;;;;;10.53;60.81;100755.35;112991;1192;94911;-76
2021/10/18 01:01:19;;;;;;;0.40;0.30;;;;;;;10.57;60.79;100757.05;112255;1193;138170;-81
2021/10/18 01:03:48;;;;;;;0.40;0.30;;;;;;;10.59;60.75;100760.75;113773;1193;106120;-82
2021/10/18 01:06:16;;;;;;;0.40;0.30;;;;;;;10.69;60.66;100760.18;113181;1192;137695;-81
2021/10/18 01:08:44;;;;;;;0.40;0.30;;;;;;;10.74;60.65;100765.39;113399;1193;94955;-81
2021/10/18 01:11:12;;;;;;;0.40;0.30;;;;;;;10.84;60.51;100766.25;113318;1192;95394;-80
2021/10/18 01:13:40;;;;;;;0.40;0.30;;;;;;;10.83;60.38;100768.95;114446;1191;137872;-81
2021/10/18 01:16:07;;;;;;;0.40;0.30;;;;;;;10.83;60.26;100765.21;112974;1193;107945;-82
2021/10/18 01:18:35;;;;;;;0.40;0.40;;;;;;;10.80;60.42;100770.05;112874;1192;137675;-82
2021/10/18 01:21:05;;;;;;;0.40;0.30;;;;;;;10.81;60.50;100765.25;113269;1191;94813;-80
2021/10/18 01:23:33;;;;;;;0.40;0.30;;;;;;;10.79;60.58;100769.02;113184;1192;138155;-80
2021/10/18 01:26:01;;;;;;;0.40;0.30;;;;;;;10.77;60.64;100769.25;113271;1192;109749;-81
2021/10/18 01:28:29;;;;;;;0.40;0.30;;;;;;;10.71;60.74;100769.89;113401;1192;94981;-81
2021/10/18 01:30:57;;;;;;;0.40;0.30;;;;;;;10.75;60.86;100768.03;113076;1193;137985;-80
2021/10/18 01:33:25;;;;;;;0.40;0.30;;;;;;;10.72;60.79;100766.86;113256;1192;108815;-81
2021/10/18 01:35:53;;;;;;;0.40;0.30;;;;;;;10.70;61.03;100764.23;113294;1192;138140;-83
2021/10/18 01:38:21;;;;;;;0.40;0.30;;;;;;;10.75;61.06;100768.58;113736;1192;95071;-80
2021/10/18 01:40:49;;;;;;;0.40;0.30;;;;;;;10.79;61.08;100766.52;113476;1193;95347;-81
2021/10/18 01:43:17;;;;;;;0.40;0.30;;;;;;;10.84;60.94;100763.77;113527;1192;139889;-82
2021/10/18 01:45:46;;;;;;;0.40;0.30;;;;;;;10.86;60.89;100764.95;113388;1193;108548;-82
2021/10/18 01:48:14;;;;;;;0.40;0.30;;;;;;;10.88;60.90;100768.65;113268;1192;136852;-82
2021/10/18 01:50:42;;;;;;;0.40;0.30;;;;;;;10.90;60.86;100766.83;113642;1191;94906;-80
2021/10/18 01:53:09;;;;;;;0.40;0.30;;;;;;;10.84;60.93;100763.23;113173;1193;107117;-81
2021/10/18 01:55:37;;;;;;;0.40;0.30;;;;;;;10.83;60.98;100767.53;113426;1192;137219;-83
2021/10/18 01:58:05;;;;;;;0.40;0.30;;;;;;;10.88;61.01;100769.17;113390;1191;95405;-81
2021/10/18 02:00:33;;;;;;;0.40;0.30;;;;;;;10.84;61.14;100768.73;113455;1192;136465;-82
2021/10/18 02:03:01;;;;;;;0.40;0.30;;;;;;;10.76;61.30;100773.53;113497;1192;107247;-81
2021/10/18 02:05:30;;;;;;;0.40;0.30;;;;;;;10.74;61.45;100773.05;113780;1192;138006;-82
2021/10/18 02:07:58;;;;;;;0.40;0.30;;;;;;;10.82;61.44;100780.33;114188;1192;95698;-81
2021/10/18 02:10:26;;;;;;;0.40;0.30;;;;;;;10.89;61.40;100773.77;113896;1192;95597;-80
2021/10/18 02:12:54;;;;;;;0.40;0.30;;;;;;;10.96;61.14;100774.70;113262;1192;137906;-81
2021/10/18 02:15:22;;;;;;;0.40;0.30;;;;;;;11.01;61.10;100774.06;113356;1193;109119;-81
2021/10/18 02:17:50;;;;;;;0.40;0.40;;;;;;;11.09;60.97;100768.89;112778;1193;137567;-80
2021/10/18 02:20:18;;;;;;;0.40;0.30;;;;;;;11.07;60.85;100767.89;112637;1192;95355;-80
2021/10/18 02:22:46;;;;;;;0.40;0.30;;;;;;;11.06;60.87;100767.55;112568;1193;107654;-81
2021/10/18 02:25:14;;;;;;;0.40;0.40;;;;;;;11.07;60.94;100763.80;113490;1192;138902;-80
2021/10/18 02:27:42;;;;;;;0.40;0.30;;;;;;;11.10;60.90;100761.61;112749;1192;94935;-81
2021/10/18 02:30:11;;;;;;;0.40;0.40;;;;;;;11.13;60.85;100765.27;113221;1192;137727;-79
2021/10/18 02:32:40;;;;;;;0.50;0.40;;;;;;;11.11;60.84;100765.67;112905;1193;107522;-80
2021/10/18 02:35:09;;;;;;;0.40;0.30;;;;;;;11.00;60.96;100763.41;113188;1192;108469;-80
2021/10/18 02:37:37;;;;;;;0.40;0.30;;;;;;;10.96;61.26;100761.56;113251;1192;137339;-81
2021/10/18 02:40:05;;;;;;;0.40;0.30;;;;;;;11.00;61.24;100762.52;113328;1192;94963;-81
2021/10/18 02:42:33;;;;;;;0.40;0.30;;;;;;;11.03;61.23;100769.05;113387;1192;136483;-79
2021/10/18 02:45:01;;;;;;;0.40;0.30;;;;;;;11.12;61.08;100774.35;112711;1193;108344;-80
2021/10/18 02:47:29;;;;;;;0.50;0.40;;;;;;;11.09;61.11;100771.91;113089;1191;137658;-80
2021/10/18 02:49:57;;;;;;;0.40;0.30;;;;;;;10.99;61.25;100772.48;112755;1193;94886;-82
2021/10/18 02:52:25;;;;;;;0.40;0.30;;;;;;;10.97;61.53;100773.08;113845;1192;108490;-80
2021/10/18 02:54:54;;;;;;;0.40;0.30;;;;;;;10.98;61.42;100775.35;113679;1192;136983;-80
2021/10/18 02:57:22;;;;;;;0.40;0.40;;;;;;;10.99;61.44;100782.46;113853;1192;95333;-80
2021/10/18 02:59:49;;;;;;;0.40;0.30;;;;;;;11.02;61.53;100785.95;113026;1193;137632;-80
2021/10/18 03:02:17;;;;;;;0.40;0.30;;;;;;;11.05;61.33;100782.48;113059;1193;106253;-80
2021/10/18 03:04:46;;;;;;;0.40;0.30;;;;;;;10.93;61.62;100785.96;113939;1191;108160;-80
2021/10/18 03:07:14;;;;;;;0.40;0.40;;;;;;;10.86;61.77;100781.46;112215;1193;137848;-80
2021/10/18 03:09:42;;;;;;;0.40;0.40;;;;;;;10.83;61.89;100779.77;113022;1192;95295;-80
2021/10/18 03:12:09;;;;;;;0.40;0.30;;;;;;;10.86;61.92;100780.75;112876;1193;139055;-81
2021/10/18 03:14:37;;;;;;;0.40;0.30;;;;;;;10.91;61.94;100781.92;113441;1192;108325;-82
2021/10/18 03:17:05;;;;;;;0.40;0.40;;;;;;;10.87;61.88;100787.14;113481;1192;94973;-81
2021/10/18 03:19:33;;;;;;;0.50;0.40;;;;;;;10.83;62.12;100788.29;113137;1193;136783;-80
2021/10/18 03:22:01;;;;;;;0.40;0.40;;;;;;;10.85;62.04;100789.31;113332;1192;108527;-81
2021/10/18 03:24:29;;;;;;;0.50;0.40;;;;;;;10.88;62.04;100793.00;113121;1192;137678;-80
2021/10/18 03:26:57;;;;;;;0.40;0.40;;;;;;;10.91;62.00;100793.98;113233;1192;94817;-82
2021/10/18 03:29:26;;;;;;;0.40;0.40;;;;;;;10.91;61.98;100800.57;113484;1192;137492;-81
2021/10/18 03:31:54;;;;;;;0.40;0.40;;;;;;;10.87;62.18;100800.64;113740;1192;108568;-81
2021/10/18 03:34:22;;;;;;;0.40;0.40;;;;;;;10.88;62.28;100805.42;113419;1192;107108;-80
2021/10/18 03:36:49;;;;;;;0.40;0.30;;;;;;;10.88;62.18;100805.41;113422;1192;137175;-81
2021/10/18 03:39:17;;;;;;;0.40;0.40;;;;;;;10.87;62.16;100804.55;113773;1192;94123;-80
2021/10/18 03:41:45;;;;;;;0.40;0.40;;;;;;;10.89;62.12;100814.29;113542;1192;137520;-80
2021/10/18 03:44:13;;;;;;;0.40;0.30;;;;;;;10.87;62.23;100814.32;113649;1193;107090;-81
2021/10/18 03:46:41;;;;;;;0.40;0.30;;;;;;;10.85;62.25;100811.34;113683;1192;94891;-80
2021/10/18 03:49:09;;;;;;;0.40;0.40;;;;;;;10.85;62.32;100818.11;113679;1192;137940;-80
2021/10/18 03:51:37;;;;;;;0.40;0.30;;;;;;;10.76;62.57;100824.34;113941;1192;106497;-81
2021/10/18 03:54:04;;;;;;;0.40;0.30;;;;;;;10.82;62.58;100822.42;113841;1192;139403;-81
2021/10/18 03:56:32;;;;;;;0.40;0.30;;;;;;;10.88;62.55;100818.58;114016;1192;94809;-80
2021/10/18 03:59:00;;;;;;;0.40;0.40;;;;;;;10.90;62.40;100821.73;114402;1192;97188;-80
2021/10/18 04:01:28;;;;;;;0.40;0.30;;;;;;;10.90;62.52;100825.81;113485;1192;137836;-82
2021/10/18 04:03:56;;;;;;;0.40;0.30;;;;;;;10.89;62.61;100824.41;113915;1192;107088;-81
2021/10/18 04:06:24;;;;;;;0.40;0.30;;;;;;;10.89;62.64;100823.69;113900;1192;138380;-81
2021/10/18 04:08:54;;;;;;;0.40;0.30;;;;;;;10.88;62.77;100825.12;114366;1192;93955;-81
2021/10/18 04:11:22;;;;;;;0.40;0.30;;;;;;;10.94;62.76;100824.32;114079;1192;137471;-80
2021/10/18 04:13:51;;;;;;;0.40;0.30;;;;;;;10.94;62.75;100828.39;114341;1192;108457;-80
2021/10/18 04:16:19;;;;;;;0.40;0.30;;;;;;;10.82;63.14;100829.87;114062;1192;95422;-80
2021/10/18 04:18:47;;;;;;;0.40;0.30;;;;;;;10.78;63.31;100836.70;112994;1193;137853;-84
2021/10/18 04:21:14;;;;;;;0.40;0.30;;;;;;;10.76;63.50;100839.42;113966;1192;107452;-80
2021/10/18 04:23:42;;;;;;;0.50;0.40;;;;;;;10.72;63.69;100844.83;113334;1191;137570;-80
2021/10/18 04:26:10;;;;;;;0.40;0.40;;;;;;;10.74;63.75;100840.71;113071;1193;97072;-81
2021/10/18 04:28:38;;;;;;;0.40;0.30;;;;;;;10.78;63.80;100840.64;114063;1192;93932;-82
2021/10/18 04:31:06;;;;;;;0.50;0.40;;;;;;;10.76;63.86;100844.39;113808;1192;138211;-81
2021/10/18 04:33:34;;;;;;;0.50;0.40;;;;;;;10.73;64.01;100849.27;114188;1192;108561;-81
2021/10/18 04:36:02;;;;;;;0.40;0.40;;;;;;;10.76;64.11;100850.43;114217;1192;138431;-81
2021/10/18 04:38:30;;;;;;;0.40;0.40;;;;;;;10.82;63.86;100852.26;114338;1192;95453;-80
2021/10/18 04:40:58;;;;;;;0.40;0.30;;;;;;;10.79;64.08;100850.39;113729;1192;108909;-80
2021/10/18 04:43:26;;;;;;;0.40;0.40;;;;;;;10.73;64.25;100854.92;113076;1193;139152;-79
2021/10/18 04:45:54;;;;;;;0.40;0.30;;;;;;;10.74;64.47;100858.46;113309;1192;95376;-80
2021/10/18 04:48:22;;;;;;;0.40;0.30;;;;;;;10.81;64.26;100859.74;113734;1192;137846;-81
2021/10/18 04:50:50;;;;;;;0.40;0.30;;;;;;;10.84;64.27;100859.15;113756;1192;108045;-88
2021/10/18 04:53:17;;;;;;;0.50;0.40;;;;;;;10.79;64.31;100861.75;113874;1192;109398;-79
2021/10/18 04:55:46;;;;;;;0.40;0.30;;;;;;;10.78;64.43;100864.61;112978;1192;138930;-80
2021/10/18 04:58:14;;;;;;;0.40;0.30;;;;;;;10.82;64.41;100865.93;113475;1192;94881;-81
2021/10/18 05:00:50;;;;;;;0.40;0.30;;;;;;;10.82;64.51;100868.96;113999;1192;138050;-81
2021/10/18 05:03:18;;;;;;;0.40;0.30;;;;;;;10.80;64.45;100868.11;113849;1191;109733;-82
2021/10/18 05:05:47;;;;;;;0.40;0.40;;;;;;;10.79;64.61;100867.42;113729;1191;138742;-81
2021/10/18 05:08:14;;;;;;;0.40;0.40;;;;;;;10.78;64.52;100873.66;114344;1192;94994;-81
2021/10/18 05:10:43;;;;;;;0.40;0.30;;;;;;;10.80;64.57;100875.39;113953;1192;107981;-81
2021/10/18 05:13:12;;;;;;;0.40;0.40;;;;;;;10.80;64.37;100877.52;113619;1192;136581;-82
2021/10/18 05:15:40;;;;;;;0.40;0.40;;;;;;;10.83;64.42;100879.96;113438;1192;94900;-80
2021/10/18 05:18:08;;;;;;;0.40;0.30;;;;;;;10.84;64.46;100881.35;114078;1192;138846;-80
2021/10/18 05:20:36;;;;;;;0.40;0.30;;;;;;;10.85;64.22;100892.68;114354;1192;108917;-80
2021/10/18 05:23:04;;;;;;;0.50;0.40;;;;;;;10.80;64.31;100891.92;113996;1193;109877;-80
2021/10/18 05:25:32;;;;;;;0.40;0.40;;;;;;;10.78;64.44;100890.90;113900;1192;138724;-80
2021/10/18 05:28:00;;;;;;;0.40;0.40;;;;;;;10.75;64.56;100897.88;113469;1193;95011;-80
2021/10/18 05:30:28;;;;;;;0.40;0.40;;;;;;;10.79;64.58;100899.05;113556;1193;137798;-80
2021/10/18 05:32:57;;;;;;;0.40;0.30;;;;;;;10.78;64.37;100898.89;113791;1192;106271;-81
2021/10/18 05:35:26;;;;;;;0.40;0.40;;;;;;;10.76;64.53;100906.38;113404;1192;136951;-81
2021/10/18 05:37:55;;;;;;;0.40;0.40;;;;;;;10.77;64.63;100909.20;113772;1192;95267;-81
2021/10/18 05:40:23;;;;;;;0.40;0.40;;;;;;;10.83;64.41;100909.25;113507;1192;106235;-81
2021/10/18 05:42:52;;;;;;;0.40;0.30;;;;;;;10.77;64.45;100912.59;113806;1192;136612;-81
2021/10/18 05:45:20;;;;;;;0.40;0.40;;;;;;;10.71;64.60;100917.66;113715;1192;94838;-80
2021/10/18 05:47:52;;;;;;;0.40;0.30;;;;;;;10.80;64.37;100916.78;113417;1192;138455;-81
2021/10/18 05:50:21;;;;;;;0.40;0.40;;;;;;;10.85;64.49;100918.29;113496;1192;108655;-81
2021/10/18 05:52:49;;;;;;;0.40;0.30;;;;;;;10.89;64.36;100918.56;113440;1192;109049;-81
2021/10/18 05:55:17;;;;;;;0.50;0.40;;;;;;;10.91;64.41;100921.19;113504;1192;138309;-81
2021/10/18 05:57:55;;;;;;;0.40;0.30;;;;;;;10.88;64.43;100926.23;112985;1193;95070;-81
2021/10/18 06:00:24;;;;;;;0.40;0.40;;;;;;;10.89;64.54;100934.02;113526;1193;138789;-81
2021/10/18 06:02:53;;;;;;;0.40;0.40;;;;;;;10.91;64.54;100933.45;113306;1193;109110;-80
2021/10/18 06:05:23;;;;;;;0.40;0.40;;;;;;;10.79;64.91;100937.94;113196;1192;94823;-80
2021/10/18 06:07:52;;;;;;;0.40;0.40;;;;;;;10.77;65.12;100945.95;113315;1193;138775;-80
2021/10/18 06:10:20;;;;;;;0.40;0.30;;;;;;;10.84;65.02;100947.80;113378;1192;105922;-80
2021/10/18 06:12:48;;;;;;;0.40;0.40;;;;;;;10.88;65.10;100949.67;113559;1192;137611;-80
2021/10/18 06:15:16;;;;;;;0.40;0.40;;;;;;;10.87;65.02;100948.98;113112;1193;95214;-80
2021/10/18 06:17:44;;;;;;;0.50;0.40;;;;;;;10.88;65.24;100952.34;113423;1192;137963;-80
2021/10/18 06:20:12;;;;;;;0.40;0.40;;;;;;;10.94;65.22;100956.68;113645;1192;108912;-80
2021/10/18 06:22:41;;;;;;;0.40;0.40;;;;;;;10.97;65.27;100958.74;113759;1192;108939;-81
2021/10/18 06:25:09;;;;;;;0.50;0.40;;;;;;;10.94;65.40;100963.61;113747;1192;137602;-80
2021/10/18 06:27:37;;;;;;;0.50;0.40;;;;;;;11.00;65.15;100968.30;113881;1192;94890;-79
2021/10/18 06:30:06;;;;;;;0.40;0.40;;;;;;;11.03;65.24;100967.52;113174;1193;138779;-80
2021/10/18 06:32:34;;;;;;;0.40;0.40;;;;;;;11.02;65.19;100971.27;112971;1192;110018;-80
2021/10/18 06:35:02;;;;;;;0.40;0.40;;;;;;;11.00;65.37;100976.45;113879;1192;95365;-81
2021/10/18 06:37:31;;;;;;;0.40;0.40;;;;;;;11.02;65.46;100980.14;113873;1192;137336;-80
2021/10/18 06:39:59;;;;;;;0.50;0.40;;;;;;;11.05;65.54;100975.83;113889;1191;106251;-81
2021/10/18 06:42:27;;;;;;;0.40;0.30;;;;;;;11.06;65.64;100978.48;113369;1192;137727;-80
2021/10/18 06:44:55;;;;;;;0.40;0.30;;;;;;;11.10;65.73;100982.14;113389;1193;94877;-80
2021/10/18 06:47:22;;;;;;;0.40;0.30;;;;;;;11.14;65.73;100985.44;113021;1192;94862;-83
2021/10/18 06:49:50;;;;;;;0.40;0.40;;;;;;;11.16;65.98;100984.33;113357;1192;137610;-81
2021/10/18 06:52:18;;;;;;;0.40;0.30;;;;;;;11.18;66.27;100982.33;113504;1192;110405;-81
2021/10/18 06:54:46;;;;;;;0.40;0.30;;;;;;;11.29;66.18;100986.23;113167;1192;138486;-78
2021/10/18 06:57:14;;;;;;;0.40;0.30;;;;;;;11.30;66.17;100989.76;112712;1192;95868;-79
2021/10/18 06:59:41;;;;;;;0.40;0.30;;;;;;;11.38;66.21;100992.25;112863;1192;138587;-79
2021/10/18 07:02:09;;;;;;;0.40;0.30;;;;;;;11.52;66.09;100988.59;113021;1192;108465;-79
2021/10/18 07:04:39;;;;;;;0.40;0.30;;;;;;;11.47;65.99;100992.60;112521;1193;95638;-80
2021/10/18 07:07:06;;;;;;;0.40;0.30;;;;;;;11.46;66.10;100992.28;112915;1193;138356;-79
2021/10/18 07:09:35;;;;;;;0.40;0.30;;;;;;;11.53;66.08;100995.15;112819;1192;107725;-79
2021/10/18 07:12:03;;;;;;;0.40;0.30;;;;;;;11.57;66.04;100995.06;113154;1192;139307;-80
2021/10/18 07:14:31;;;;;;;0.40;0.40;;;;;;;11.61;66.01;100995.17;113266;1190;94963;-80
2021/10/18 07:16:59;;;;;;;0.40;0.30;;;;;;;11.69;65.84;100998.02;112525;1193;94966;-79
2021/10/18 07:19:27;;;;;;;0.40;0.30;;;;;;;11.72;65.88;101006.68;112913;1191;138797;-77
2021/10/18 07:21:55;;;;;;;0.40;0.30;;;;;;;11.73;65.56;101011.10;112915;1192;108296;-81
2021/10/18 07:24:23;;;;;;;0.40;0.30;;;;;;;11.65;65.71;101011.26;113228;1191;136651;-81
2021/10/18 07:26:51;;;;;;;0.40;0.30;;;;;;;11.63;65.83;101019.85;113688;1191;95568;-80
2021/10/18 07:29:21;;;;;;;0.40;0.30;;;;;;;11.67;65.81;101027.92;112899;1193;106754;-80
2021/10/18 07:31:49;;;;;;;0.40;0.30;;;;;;;11.73;65.69;101031.02;113154;1193;138466;-79
2021/10/18 07:34:18;;;;;;;0.40;0.30;;;;;;;11.74;65.52;101029.95;112501;1192;95340;-78
2021/10/18 07:36:49;;;;;;;0.40;0.30;;;;;;;11.67;65.58;101031.84;112656;1193;137372;-79
2021/10/18 07:39:20;;;;;;;0.40;0.30;;;;;;;11.72;65.54;101035.84;112698;1192;107485;-80
2021/10/18 07:41:49;;;;;;;0.40;0.20;;;;;;;11.83;65.39;101035.60;112838;1193;141294;-80
2021/10/18 07:44:19;;;;;;;0.40;0.30;;;;;;;11.84;65.30;101037.02;113109;1192;94893;-79
2021/10/18 07:46:46;;;;;;;0.40;0.30;;;;;;;11.93;65.23;101040.23;112823;1192;95354;-79
2021/10/18 07:49:15;;;;;;;0.40;0.30;;;;;;;12.02;64.94;101041.29;112976;1192;138195;-81
2021/10/18 07:51:43;;;;;;;0.40;0.30;;;;;;;12.02;64.73;101035.95;113142;1192;107056;-80
2021/10/18 07:54:12;;;;;;;0.40;0.30;;;;;;;12.00;64.88;101034.92;112532;1192;138344;-78
2021/10/18 07:56:39;;;;;;;0.40;0.30;;;;;;;12.12;64.61;101031.46;112394;1192;94885;-79
2021/10/18 07:59:07;;;;;;;0.40;0.30;;;;;;;12.13;64.50;101026.44;112290;1192;107931;-80
2021/10/18 08:01:35;;;;;;;0.40;0.20;;;;;;;12.10;64.43;101023.49;113254;1192;137791;-79
2021/10/18 08:04:03;;;;;;;0.40;0.30;;;;;;;12.15;64.40;101028.38;113050;1193;94787;-79
2021/10/18 08:06:31;;;;;;;0.40;0.30;;;;;;;12.21;64.37;101030.71;112195;1192;138742;-79
2021/10/18 08:09:00;;;;;;;0.40;0.30;;;;;;;12.35;64.30;101034.50;112831;1192;108442;-82
2021/10/18 08:11:29;;;;;;;0.40;0.20;;;;;;;12.52;64.19;101037.48;113645;1192;138141;-79
2021/10/18 08:13:58;;;;;;;0.40;0.30;;;;;;;12.58;63.57;101041.26;112938;1192;94883;-80
2021/10/18 08:16:26;;;;;;;0.40;0.30;;;;;;;12.48;63.56;101045.77;112708;1192;96137;-79
2021/10/18 08:18:53;;;;;;;0.40;0.30;;;;;;;12.56;63.86;101048.23;112578;1192;138158;-79
2021/10/18 08:21:22;;;;;;;0.40;0.30;;;;;;;12.63;63.66;101051.83;113066;1191;108566;-82
2021/10/18 08:23:50;;;;;;;0.40;0.20;;;;;;;12.67;63.50;101053.52;113096;1192;137847;-81
2021/10/18 08:26:18;;;;;;;0.40;0.30;;;;;;;12.67;63.60;101050.11;112608;1193;95386;-80
2021/10/18 08:28:46;;;;;;;0.40;0.30;;;;;;;12.70;63.46;101049.69;112546;1193;106753;-80
2021/10/18 08:31:15;;;;;;;0.40;0.30;;;;;;;12.78;63.35;101048.25;113228;1192;137523;-80
2021/10/18 08:33:43;;;;;;;0.40;0.30;;;;;;;12.79;62.86;101049.83;113430;1192;94846;-79
2021/10/18 08:36:11;;;;;;;0.40;0.30;;;;;;;12.78;62.58;101052.52;113025;1191;137894;-79
2021/10/18 08:38:49;;;;;;;0.40;0.30;;;;;;;12.80;62.68;101053.18;112620;1193;108391;-80
2021/10/18 08:41:37;;;;;;;0.40;0.30;;;;;;;12.76;62.46;101058.45;113265;1191;108489;-80
2021/10/18 08:44:15;;;;;;;0.40;0.30;;;;;;;12.82;62.85;101058.30;113273;1193;137000;-79
2021/10/18 08:46:50;;;;;;;0.40;0.30;;;;;;;12.89;62.53;101057.77;112620;1192;94870;-78
2021/10/18 08:49:19;;;;;;;0.40;0.30;;;;;;;12.89;62.44;101055.10;112693;1193;136412;-80
2021/10/18 08:51:48;;;;;;;0.40;0.30;;;;;;;12.98;62.36;101056.84;113088;1192;108871;-80
2021/10/18 08:54:16;;;;;;;0.40;0.20;;;;;;;13.15;62.33;101064.23;112595;1190;137234;-80
2021/10/18 08:56:54;;;;;;;0.40;0.20;;;;;;;13.38;61.82;101065.77;113167;1192;95205;-80
2021/10/18 08:59:23;;;;;;;0.40;0.30;;;;;;;13.54;61.37;101064.64;112627;1193;107608;-79
2021/10/18 09:01:57;;;;;;;0.40;0.20;;;;;;;13.73;61.21;101061.44;112579;1193;136976;-79
2021/10/18 09:04:30;;;;;;;0.40;0.30;;;;;;;13.95;60.36;101061.50;112934;1192;95372;-78
2021/10/18 09:07:05;;;;;;;0.40;0.20;;;;;;;13.97;59.66;101066.27;112784;1192;138315;-78
2021/10/18 09:09:45;;;;;;;0.40;0.30;;;;;;;13.95;59.83;101063.29;113183;1193;107085;-80
2021/10/18 09:12:28;;;;;;;0.40;0.30;;;;;;;14.06;59.13;101064.40;112625;1192;138214;-80
2021/10/18 09:15:27;;;;;;;0.40;0.30;;;;;;;14.19;58.72;101063.29;112817;1192;94874;-81
2021/10/18 09:17:58;;;;;;;0.40;0.20;;;;;;;14.27;58.72;101066.08;113611;1192;137038;-80
2021/10/18 09:20:36;;;;;;;0.40;0.30;;;;;;;14.62;58.43;101068.91;112564;1192;108521;-79
2021/10/18 09:23:24;;;;;;;0.40;0.20;;;;;;;15.51;55.99;101071.09;112346;1193;108893;-78
2021/10/18 09:26:01;;;;;;;0.40;0.20;;;;;;;15.37;54.79;101067.13;112992;1192;137560;-79
2021/10/18 09:28:29;;;;;;;0.40;0.20;;;;;;;15.58;54.41;101068.34;112316;1193;95506;-77
2021/10/18 09:30:58;;;;;;;0.40;0.20;;;;;;;16.67;52.25;101058.05;112457;1193;137676;-78
2021/10/18 09:36:02;;;;;;;0.40;0.10;;;;;;;21.03;43.30;101042.64;112821;1193;137497;-79
2021/10/18 09:38:30;;;;;;;0.40;0.10;;;;;;;22.72;39.86;101041.44;112756;1192;95370;-79
2021/10/18 09:41:01;;;;;;;0.40;0.10;;;;;;;23.79;37.70;101040.73;112620;1192;106194;-79
2021/10/18 09:43:58;;;;;;;0.40;0.00;;;;;;;24.91;35.85;101041.10;112818;1192;138362;-80
2021/10/18 09:46:45;;;;;;;0.40;0.10;;;;;;;24.67;34.59;101038.36;113669;1191;94829;-81
2021/10/18 10:51:24;;;;;;;0.40;0.20;;;;;;;14.77;50.95;101055.92;112386;1192;108564;-79
2021/10/18 10:53:54;;;;;;;0.40;0.30;;;;;;;14.80;51.04;101055.86;112229;1192;137668;-77
2021/10/18 10:56:32;;;;;;;0.40;0.20;;;;;;;14.65;50.35;101060.08;113107;1192;94913;-79
2021/10/18 10:59:20;;;;;;;0.40;0.30;;;;;;;14.46;50.53;101065.13;112249;1193;107482;-80
2021/10/18 11:01:50;;;;;;;0.40;0.20;;;;;;;14.29;51.36;101062.98;112380;1192;138010;-81
2021/10/18 11:04:30;;;;;;;0.40;0.20;;;;;;;14.19;51.93;101062.39;112483;1193;95522;-80
2021/10/18 11:07:02;;;;;;;0.40;0.20;;;;;;;14.07;51.99;101063.10;112098;1192;137840;-76
2021/10/18 11:09:51;;;;;;;0.40;0.30;;;;;;;14.03;51.99;101065.91;112093;1192;108110;-81
2021/10/18 11:12:21;;;;;;;0.40;0.30;;;;;;;13.97;51.47;101063.95;112215;1193;137081;-78
2021/10/18 11:15:00;;;;;;;0.40;0.20;;;;;;;13.95;51.80;101063.31;113272;1192;94999;-79
2021/10/18 11:17:33;;;;;;;0.40;0.20;;;;;;;14.00;51.56;101060.10;113025;1193;95864;-80
2021/10/18 11:20:12;;;;;;;0.40;0.20;;;;;;;14.08;51.49;101050.92;112231;1193;137891;-77
2021/10/18 11:22:42;;;;;;;0.40;0.20;;;;;;;14.05;50.90;101048.70;112219;1193;108706;-77
2021/10/18 11:25:14;;;;;;;0.40;0.30;;;;;;;14.00;50.69;101046.17;112087;1191;137772;-77
2021/10/18 11:27:44;;;;;;;0.40;0.20;;;;;;;14.00;51.01;101042.61;112428;1193;95349;-78
2021/10/18 11:30:15;;;;;;;0.40;0.30;;;;;;;14.00;50.53;101041.90;111973;1193;137734;-78
2021/10/18 11:33:03;;;;;;;0.40;0.30;;;;;;;14.00;50.27;101050.48;112796;1191;108063;-77
2021/10/18 11:35:33;;;;;;;0.40;0.30;;;;;;;13.98;50.22;101051.62;112356;1193;95978;-81
2021/10/18 11:38:07;;;;;;;0.40;0.20;;;;;;;14.00;50.75;101057.08;113531;1191;137889;-80
2021/10/18 11:40:49;;;;;;;0.40;0.30;;;;;;;13.96;50.81;101059.71;112792;1193;106725;-82
2021/10/18 11:43:23;;;;;;;0.40;0.30;;;;;;;13.92;50.41;101063.55;112417;1193;138597;-77
2021/10/18 11:45:55;;;;;;;0.40;0.30;;;;;;;13.89;50.41;101063.63;112282;1193;95386;-78
2021/10/18 11:48:25;;;;;;;0.40;0.30;;;;;;;13.83;50.42;101064.16;112342;1193;138455;-78
2021/10/18 11:50:56;;;;;;;0.40;0.30;;;;;;;13.79;49.86;101063.04;113013;1192;107228;-77
2021/10/18 11:53:27;;;;;;;0.40;0.30;;;;;;;13.72;49.74;101066.29;113941;1192;108531;-78
2021/10/18 11:56:01;;;;;;;0.40;0.30;;;;;;;13.69;49.41;101065.46;112025;1192;138626;-79
2021/10/18 11:58:34;;;;;;;0.40;0.30;;;;;;;13.62;49.42;101078.32;112481;1192;95308;-77
2021/10/18 12:01:06;;;;;;;0.40;0.30;;;;;;;13.64;49.94;101078.11;112685;1193;138164;-77
2021/10/18 12:03:35;;;;;;;0.40;0.30;;;;;;;13.68;50.00;101071.39;112366;1193;108524;-75
2021/10/18 12:06:08;;;;;;;0.40;0.30;;;;;;;13.73;49.66;101070.91;112067;1193;138450;-80
2021/10/18 12:08:38;;;;;;;0.40;0.30;;;;;;;13.72;49.84;101067.54;112384;1193;95394;-77
2021/10/18 12:11:08;;;;;;;0.40;0.30;;;;;;;13.72;49.58;101064.31;111944;1193;108531;-81
2021/10/18 12:13:40;;;;;;;0.40;0.30;;;;;;;13.68;49.54;101066.20;112222;1192;138111;-79
2021/10/18 12:16:19;;;;;;;0.40;0.30;;;;;;;13.68;49.71;101062.46;112342;1192;95218;-77
2021/10/18 12:18:53;;;;;;;0.40;0.20;;;;;;;13.71;49.81;101059.53;112069;1192;138089;-86
2021/10/18 12:21:30;;;;;;;0.40;0.20;;;;;;;13.69;49.12;101056.92;112067;1193;109154;-85
2021/10/18 12:24:12;;;;;;;0.40;0.20;;;;;;;13.72;49.35;101056.63;112287;1193;139240;-79
2021/10/18 12:26:43;;;;;;;0.40;0.30;;;;;;;13.75;48.89;101059.95;112503;1199;94885;-79
2021/10/18 12:29:16;;;;;;;0.40;0.30;;;;;;;13.67;48.78;101066.59;112130;1193;96127;-77